Amesville, Ohio
Current Conditions -  °F | °C
As of 2:55 PM on Friday 24 Oct 2014 (Local Time) from KUNI Reporting Station
Clear Clear  
Wind Chill: 63°   Ceiling: Unl
Heat Index: 63°   Visibility: 10mi
Dew Point: 38°   Wind: 7mph
Humidity: 40%   Direction: 250°WSW
Pressure: 30.06"   Gusts: NA
Location:  39.4°N, 81.96°W
Report Text: KUNI 241855Z AUTO 25006KT 10SM CLR 17/04 A3006 RMK AO2 T01720035
Loading
Personal Weather Stations






























Interactive Weather Map
Tropical Storm Tracking
New forecast layout! Learn more

10-Day Weather Forecast

Advertisements
Track Severe Weather on mobile